createdAt,value
2023-08-15T00:03:24.183Z,6.90
2023-08-15T00:08:31.429Z,6.20
2023-08-15T00:13:38.673Z,6.60
2023-08-15T00:18:46.008Z,6.90
2023-08-15T00:23:53.028Z,7.50
2023-08-15T00:29:00.680Z,6.40
2023-08-15T00:34:08.848Z,6.60
2023-08-15T00:39:16.003Z,6.80
2023-08-15T00:44:23.109Z,6.90
2023-08-15T00:49:30.360Z,6.30
2023-08-15T00:54:38.332Z,7.20
2023-08-15T00:59:46.900Z,5.80
2023-08-15T01:04:54.080Z,6.00
2023-08-15T01:10:01.140Z,5.80
2023-08-15T01:20:20.278Z,5.90
2023-08-15T01:25:29.197Z,6.80
2023-08-15T01:30:36.464Z,5.50
2023-08-15T01:35:57.547Z,5.80
2023-08-15T01:41:07.619Z,6.80
2023-08-15T01:46:15.234Z,7.20
2023-08-15T01:51:22.421Z,7.00
2023-08-15T01:56:33.202Z,6.70
2023-08-15T02:01:40.572Z,6.50
2023-08-15T02:06:48.558Z,7.30
2023-08-15T02:11:55.697Z,7.10
2023-08-15T02:17:02.719Z,8.10
2023-08-15T02:22:12.844Z,9.00
2023-08-15T02:27:20.062Z,8.50
2023-08-15T02:32:29.356Z,6.90
2023-08-15T02:37:36.798Z,7.80
2023-08-15T02:47:49.837Z,7.30
2023-08-15T02:52:57.047Z,7.80
2023-08-15T02:58:04.196Z,7.00
2023-08-15T03:03:11.292Z,7.60
2023-08-15T03:08:18.654Z,8.40
2023-08-15T03:13:25.979Z,9.30
2023-08-15T03:23:39.429Z,11.50
2023-08-15T03:28:48.080Z,13.20
2023-08-15T03:33:56.274Z,9.30
2023-08-15T03:39:04.094Z,11.20
2023-08-15T03:44:11.220Z,11.30
2023-08-15T03:49:19.166Z,10.80
2023-08-15T03:54:26.418Z,14.20
2023-08-15T03:59:34.245Z,13.10
2023-08-15T04:04:41.787Z,12.60
2023-08-15T04:09:48.853Z,13.60
2023-08-15T04:14:56.103Z,12.10
2023-08-15T04:20:05.810Z,12.80
2023-08-15T04:25:14.057Z,11.80
2023-08-15T04:30:22.034Z,12.30
2023-08-15T04:40:39.319Z,14.90
2023-08-15T04:45:46.773Z,13.00
2023-08-15T04:50:54.757Z,13.70
2023-08-15T04:56:02.283Z,14.00
2023-08-15T05:01:10.739Z,14.10
2023-08-15T05:06:17.934Z,13.50
2023-08-15T05:11:25.203Z,14.00
2023-08-15T05:16:32.351Z,13.80
2023-08-15T05:21:39.662Z,14.10
2023-08-15T05:26:46.851Z,14.00
2023-08-15T05:31:54.883Z,13.60
2023-08-15T05:37:02.146Z,14.00
2023-08-15T05:42:09.836Z,12.40
2023-08-15T05:47:17.280Z,12.60
2023-08-15T05:52:24.765Z,13.50
2023-08-15T05:57:31.956Z,12.20
2023-08-15T06:02:41.420Z,12.30
2023-08-15T06:07:48.583Z,12.40
2023-08-15T06:12:55.926Z,11.80
2023-08-15T06:18:13.237Z,11.40
2023-08-15T06:23:20.478Z,10.40
2023-08-15T06:28:27.827Z,10.70
2023-08-15T06:33:34.973Z,10.40
2023-08-15T06:38:42.055Z,10.90
2023-08-15T06:43:49.171Z,9.90
2023-08-15T06:48:56.665Z,8.30
2023-08-15T06:54:08.748Z,7.90
2023-08-15T06:59:16.184Z,8.20
2023-08-15T07:04:23.860Z,7.90
2023-08-15T07:09:31.124Z,7.20
2023-08-15T07:14:38.367Z,5.50
2023-08-15T07:19:45.617Z,5.10
2023-08-15T07:24:55.540Z,4.90
2023-08-15T07:30:02.810Z,4.90
2023-08-15T07:35:11.516Z,5.10
2023-08-15T07:40:24.290Z,5.20
2023-08-15T07:45:32.031Z,4.80
2023-08-15T07:50:39.232Z,4.70
2023-08-15T07:55:46.395Z,5.00
2023-08-15T08:00:53.537Z,4.80
2023-08-15T08:06:03.709Z,5.10
2023-08-15T08:11:11.101Z,5.30
2023-08-15T08:16:18.818Z,5.20
2023-08-15T08:21:26.192Z,4.10
2023-08-15T08:26:33.490Z,4.20
2023-08-15T08:31:42.379Z,4.60
2023-08-15T08:36:49.934Z,4.30
2023-08-15T08:41:57.208Z,3.90
2023-08-15T08:47:05.624Z,3.90
2023-08-15T08:52:13.480Z,4.20
2023-08-15T08:57:22.468Z,4.10
2023-08-15T09:02:43.517Z,3.40
2023-08-15T09:07:52.609Z,3.70
2023-08-15T09:13:05.309Z,3.80
2023-08-15T09:18:35.531Z,3.70
2023-08-15T09:23:50.277Z,3.40
2023-08-15T09:29:07.055Z,4.20
2023-08-15T09:34:15.153Z,3.50
2023-08-15T09:39:23.743Z,4.20
2023-08-15T09:44:37.561Z,4.80
2023-08-15T09:49:45.467Z,4.40
2023-08-15T09:54:52.643Z,4.30
2023-08-15T09:59:59.872Z,4.10
2023-08-15T10:05:09.844Z,4.10
2023-08-15T10:10:19.296Z,4.60
2023-08-15T10:15:28.043Z,4.20
2023-08-15T10:20:40.002Z,3.90
2023-08-15T10:25:51.086Z,4.20
2023-08-15T10:30:59.109Z,4.20
2023-08-15T10:36:12.959Z,4.00
2023-08-15T10:41:22.512Z,4.80
2023-08-15T10:46:31.734Z,4.30
2023-08-15T10:51:40.820Z,4.60
2023-08-15T10:56:48.082Z,4.00
2023-08-15T11:01:57.267Z,4.50
2023-08-15T11:07:04.382Z,4.10
2023-08-15T11:12:15.774Z,4.30
2023-08-15T11:17:23.328Z,4.20
2023-08-15T11:22:30.863Z,3.90
2023-08-15T11:27:42.133Z,4.40
2023-08-15T11:32:51.092Z,3.70
2023-08-15T11:37:58.285Z,4.40
2023-08-15T11:43:06.725Z,4.30
2023-08-15T11:48:16.497Z,4.00
2023-08-15T11:53:25.568Z,4.40
2023-08-15T11:58:34.139Z,4.20
2023-08-15T12:03:41.948Z,3.70
2023-08-15T12:08:49.718Z,5.60
2023-08-15T12:13:56.815Z,3.90
2023-08-15T12:19:04.033Z,4.30
2023-08-15T12:24:11.416Z,4.20
2023-08-15T12:29:18.924Z,4.50
2023-08-15T12:34:26.154Z,4.60
2023-08-15T12:39:33.542Z,4.20
2023-08-15T12:44:41.003Z,4.80
2023-08-15T12:49:48.478Z,4.40
2023-08-15T12:54:55.572Z,4.90
2023-08-15T13:00:03.478Z,4.50
2023-08-15T13:05:11.314Z,4.10
2023-08-15T13:10:18.772Z,5.00
2023-08-15T13:15:25.930Z,5.00
2023-08-15T13:20:33.075Z,4.10
2023-08-15T13:25:40.245Z,4.70
2023-08-15T13:30:48.538Z,4.20
2023-08-15T13:35:55.712Z,4.30
2023-08-15T13:41:02.880Z,4.10
2023-08-15T13:46:12.597Z,4.20
2023-08-15T13:51:21.401Z,4.40
2023-08-15T13:56:29.879Z,4.50
2023-08-15T14:01:37.057Z,4.00
2023-08-15T14:06:44.335Z,4.80
2023-08-15T14:11:51.502Z,3.90
2023-08-15T14:16:58.792Z,4.70
2023-08-15T14:22:06.170Z,4.30
2023-08-15T14:27:13.165Z,4.00
2023-08-15T14:32:20.686Z,4.50
2023-08-15T14:37:29.308Z,3.70
2023-08-15T14:42:38.199Z,4.50
2023-08-15T14:47:45.615Z,3.90
2023-08-15T14:52:52.681Z,3.80
2023-08-15T14:57:59.850Z,3.90
2023-08-15T15:03:07.371Z,4.10
2023-08-15T15:08:14.708Z,3.70
2023-08-15T15:13:21.929Z,3.50
2023-08-15T15:18:29.955Z,3.40
2023-08-15T15:23:37.036Z,4.40
2023-08-15T15:28:44.086Z,3.90
2023-08-15T15:33:51.258Z,3.30
2023-08-15T15:38:58.401Z,3.70
2023-08-15T15:44:06.151Z,3.30
2023-08-15T15:49:13.300Z,3.50
2023-08-15T15:54:20.573Z,2.80
2023-08-15T15:59:27.830Z,3.30
2023-08-15T16:04:34.851Z,3.30
2023-08-15T16:09:42.151Z,4.00
2023-08-15T16:14:49.477Z,2.80
2023-08-15T16:19:56.866Z,3.00
2023-08-15T16:25:04.363Z,2.90
2023-08-15T16:30:18.130Z,3.00
2023-08-15T16:35:25.716Z,2.70
2023-08-15T16:40:32.729Z,2.90
2023-08-15T16:45:40.108Z,3.20
2023-08-15T16:50:47.400Z,3.00
2023-08-15T16:55:54.386Z,4.20
2023-08-15T17:01:01.752Z,3.60
2023-08-15T17:06:09.443Z,3.70
2023-08-15T17:11:16.712Z,3.90
2023-08-15T17:16:24.086Z,3.40
2023-08-15T17:21:31.386Z,3.30
2023-08-15T17:26:39.904Z,3.20
2023-08-15T17:31:51.583Z,3.80
2023-08-15T17:36:58.946Z,3.50
2023-08-15T17:42:06.535Z,4.20
2023-08-15T17:47:13.991Z,5.10
2023-08-15T17:52:22.054Z,4.80
2023-08-15T17:57:29.825Z,4.30
2023-08-15T18:02:37.297Z,4.10
2023-08-15T18:07:44.806Z,4.20
2023-08-15T18:12:51.959Z,4.70
2023-08-15T18:17:59.277Z,4.30
2023-08-15T18:23:06.600Z,4.10
2023-08-15T18:28:13.773Z,4.50
2023-08-15T18:33:21.160Z,4.80
2023-08-15T18:38:31.167Z,4.20
2023-08-15T18:43:38.587Z,4.40
2023-08-15T18:48:47.052Z,4.20
2023-08-15T18:53:55.605Z,5.20
2023-08-15T18:59:03.839Z,5.00
2023-08-15T19:04:11.065Z,4.40
2023-08-15T19:09:18.237Z,5.60
2023-08-15T19:14:25.390Z,5.10
2023-08-15T19:19:32.476Z,5.00
2023-08-15T19:24:39.671Z,5.60
2023-08-15T19:29:46.940Z,5.70
2023-08-15T19:34:54.281Z,5.90
2023-08-15T19:40:01.529Z,6.60
2023-08-15T19:45:14.776Z,5.60
2023-08-15T19:50:21.919Z,6.20
2023-08-15T19:55:31.950Z,5.60
2023-08-15T20:00:40.249Z,6.50
2023-08-15T20:05:47.610Z,7.60
2023-08-15T20:10:56.987Z,8.80
2023-08-15T20:16:04.067Z,6.50
2023-08-15T20:26:17.067Z,5.90
2023-08-15T20:36:29.923Z,10.10
2023-08-15T20:46:42.947Z,5.70
2023-08-15T20:51:50.464Z,6.80
2023-08-15T20:56:57.511Z,7.20
2023-08-15T21:02:04.926Z,5.90
2023-08-15T21:07:13.794Z,8.70
2023-08-15T21:12:21.102Z,7.40
2023-08-15T21:17:28.607Z,7.20
2023-08-15T21:22:35.809Z,7.40
2023-08-15T21:27:43.035Z,7.30
2023-08-15T21:37:56.304Z,6.60
2023-08-15T21:43:06.368Z,6.40
2023-08-15T21:48:13.683Z,10.00
2023-08-15T21:53:20.919Z,8.10
2023-08-15T22:03:33.735Z,6.80
2023-08-15T22:13:49.387Z,7.30
2023-08-15T22:18:56.566Z,7.30
2023-08-15T22:24:04.507Z,7.40
2023-08-15T22:29:11.634Z,7.20
2023-08-15T22:34:18.855Z,7.80
2023-08-15T22:44:31.662Z,7.40
2023-08-15T22:49:39.019Z,8.40
2023-08-15T22:59:51.520Z,8.00
2023-08-15T23:04:58.621Z,8.20
2023-08-15T23:10:06.449Z,8.20
2023-08-15T23:15:14.294Z,8.70
2023-08-15T23:20:21.466Z,7.90
2023-08-15T23:25:28.695Z,7.80
2023-08-15T23:30:36.775Z,7.80
2023-08-15T23:35:43.876Z,8.90
2023-08-15T23:40:50.978Z,9.20
2023-08-15T23:45:58.269Z,9.00
2023-08-15T23:51:05.604Z,8.50
2023-08-15T23:56:13.125Z,7.80
